Time;durP1;ratioP1;P1;durP2;ratioP2;P2;SDS_P1;SDS_P2;PMS_P1;PMS_P2;Temp;Humidity;BMP_temperature;BMP_pressure;BME280_temperature;BME280_humidity;BME280_pressure;Samples;Min_cycle;Max_cycle;Signal;HPM_P1;HPM_P2
2021/12/14 00:01:49;;;;;;;10.37;5.40;;;9.00;99.90;;;;;;5011420;28;20190;-77
2021/12/14 00:04:27;;;;;;;8.43;4.87;;;8.90;99.90;;;;;;4959951;28;20214;-80
2021/12/14 00:06:54;;;;;;;10.27;5.23;;;8.70;99.90;;;;;;5012528;28;20210;-77
2021/12/14 00:09:29;;;;;;;10.17;6.20;;;8.80;99.90;;;;;;5012774;28;20265;-77
2021/12/14 00:15:24;;;;;;;9.83;6.03;;;8.80;99.90;;;;;;4995999;28;20274;-80
2021/12/14 00:18:02;;;;;;;9.47;5.33;;;8.50;99.90;;;;;;5010920;28;20246;-76
2021/12/14 00:20:41;;;;;;;9.53;5.63;;;8.70;99.90;;;;;;5011834;28;20260;-77
2021/12/14 00:25:44;;;;;;;7.93;5.80;;;8.80;99.90;;;;;;5011029;28;20236;-79
2021/12/14 00:28:20;;;;;;;10.77;6.17;;;8.80;99.90;;;;;;4994925;28;20174;-76
2021/12/14 00:30:52;;;;;;;11.27;6.30;;;8.90;99.90;;;;;;5012238;28;20253;-78
2021/12/14 00:33:25;;;;;;;9.33;5.77;;;9.00;99.90;;;;;;4994659;28;20178;-75
2021/12/14 00:35:54;;;;;;;8.77;5.37;;;8.90;99.90;;;;;;4995636;28;20189;-82
2021/12/14 00:38:22;;;;;;;9.87;5.80;;;8.90;99.90;;;;;;5011958;28;20189;-78
2021/12/14 00:41:01;;;;;;;10.60;6.40;;;8.90;99.90;;;;;;4994737;28;20229;-75
2021/12/14 00:43:27;;;;;;;9.37;5.27;;;8.90;99.90;;;;;;5010649;28;20261;-78
2021/12/14 00:45:54;;;;;;;9.93;6.07;;;9.00;99.90;;;;;;5010657;28;20328;-76
2021/12/14 00:48:20;;;;;;;9.03;5.33;;;8.90;99.90;;;;;;5010810;28;20198;-75
2021/12/14 00:50:53;;;;;;;8.50;4.87;;;8.80;99.90;;;;;;5010847;28;20193;-77
2021/12/14 00:53:19;;;;;;;9.73;5.43;;;8.90;99.90;;;;;;5010559;28;20175;-75
2021/12/14 00:55:48;;;;;;;7.43;5.20;;;8.90;99.90;;;;;;5010282;28;20182;-76
2021/12/14 00:58:15;;;;;;;9.77;5.40;;;8.90;99.90;;;;;;4993942;28;20245;-78
2021/12/14 01:00:49;;;;;;;8.17;4.80;;;8.90;99.90;;;;;;5011541;28;20179;-78
2021/12/14 01:03:15;;;;;;;7.97;4.70;;;8.80;99.90;;;;;;5010261;28;20183;-75
2021/12/14 01:05:46;;;;;;;8.50;4.80;;;8.80;99.90;;;;;;4993556;28;20175;-76
2021/12/14 01:08:17;;;;;;;6.47;4.37;;;8.80;99.90;;;;;;4993766;28;20220;-74
2021/12/14 01:10:47;;;;;;;6.60;4.50;;;8.80;99.90;;;;;;5009837;28;20249;-76
2021/12/14 01:13:14;;;;;;;8.97;5.17;;;8.80;99.90;;;;;;4994045;28;20205;-78
2021/12/14 01:15:59;;;;;;;7.60;4.90;;;8.80;99.90;;;;;;5009379;28;20323;-78
2021/12/14 01:21:45;;;;;;;8.33;4.90;;;8.80;99.90;;;;;;4993762;28;20533;-78
2021/12/14 01:24:41;;;;;;;7.43;4.73;;;8.80;99.90;;;;;;5026989;28;20178;-78
2021/12/14 01:27:15;;;;;;;9.20;5.20;;;8.60;99.90;;;;;;5009261;28;20175;-75
2021/12/14 01:29:43;;;;;;;8.90;4.90;;;8.60;99.90;;;;;;4993232;28;20626;-76
2021/12/14 01:32:11;;;;;;;7.43;4.27;;;8.70;99.90;;;;;;5009819;28;20186;-78
2021/12/14 01:34:37;;;;;;;8.77;4.80;;;8.70;99.90;;;;;;5011196;28;20166;-76
2021/12/14 01:37:14;;;;;;;9.27;5.00;;;8.70;99.90;;;;;;5010999;28;20226;-75
2021/12/14 01:40:03;;;;;;;8.10;5.03;;;8.70;99.90;;;;;;5026056;28;20178;-77
2021/12/14 01:42:36;;;;;;;9.10;4.83;;;8.80;99.90;;;;;;5009892;28;20580;-75
2021/12/14 01:45:13;;;;;;;9.00;4.57;;;8.80;99.90;;;;;;5010100;28;20190;-77
2021/12/14 01:47:52;;;;;;;9.70;5.20;;;8.80;99.90;;;;;;5025905;28;20591;-76
2021/12/14 01:50:35;;;;;;;9.20;4.67;;;8.80;99.90;;;;;;4994596;28;20170;-76
2021/12/14 01:53:02;;;;;;;11.20;5.50;;;8.80;99.90;;;;;;5009822;28;20178;-77
2021/12/14 01:55:31;;;;;;;9.27;4.97;;;8.90;99.90;;;;;;5010907;28;20182;-78
2021/12/14 01:58:01;;;;;;;9.83;4.87;;;8.80;99.90;;;;;;5009608;28;20198;-80
2021/12/14 02:00:54;;;;;;;9.17;5.40;;;8.80;99.90;;;;;;5009804;28;20170;-75
2021/12/14 02:03:33;;;;;;;9.20;4.80;;;8.80;99.90;;;;;;5010944;28;20166;-76
2021/12/14 02:05:59;;;;;;;9.50;4.90;;;8.80;99.90;;;;;;5009422;28;20254;-78
2021/12/14 02:08:29;;;;;;;6.87;4.77;;;8.80;99.90;;;;;;5010724;28;20167;-76
2021/12/14 02:10:58;;;;;;;10.17;4.57;;;8.80;99.90;;;;;;5009894;28;20175;-78
2021/12/14 02:13:37;;;;;;;8.70;4.63;;;8.80;99.90;;;;;;4993396;28;20311;-78
2021/12/14 02:16:05;;;;;;;7.60;4.23;;;8.80;99.90;;;;;;4977033;28;20316;-78
2021/12/14 02:18:32;;;;;;;7.43;4.30;;;8.90;99.90;;;;;;5009109;28;20620;-75
2021/12/14 02:21:01;;;;;;;9.03;5.13;;;8.90;99.90;;;;;;4993202;28;20206;-76
2021/12/14 02:23:29;;;;;;;8.07;4.27;;;8.90;99.90;;;;;;5010650;28;20183;-77
2021/12/14 02:26:00;;;;;;;9.30;4.50;;;8.90;99.90;;;;;;5008831;28;20174;-75
2021/12/14 02:28:26;;;;;;;9.73;5.17;;;8.90;99.90;;;;;;5010730;28;20588;-76
2021/12/14 02:30:57;;;;;;;7.30;4.80;;;8.80;99.90;;;;;;5011114;28;20175;-77
2021/12/14 02:33:29;;;;;;;8.53;4.47;;;8.80;99.90;;;;;;4991692;28;20175;-79
2021/12/14 02:35:56;;;;;;;7.03;4.53;;;8.80;99.90;;;;;;5002287;28;20653;-77
2021/12/14 02:38:22;;;;;;;11.13;5.53;;;9.10;99.90;;;;;;5005019;28;20202;-75
2021/12/14 02:40:53;;;;;;;8.17;4.50;;;8.90;99.90;;;;;;4996493;28;20217;-78
2021/12/14 02:43:25;;;;;;;10.47;5.17;;;8.80;99.90;;;;;;5014014;28;20577;-77
2021/12/14 02:45:59;;;;;;;8.77;4.57;;;8.90;99.90;;;;;;5012493;28;20213;-75
2021/12/14 02:48:25;;;;;;;10.10;5.53;;;8.80;99.90;;;;;;5012894;28;20254;-75
2021/12/14 02:50:51;;;;;;;8.70;4.83;;;8.90;99.90;;;;;;5012272;28;20196;-78
2021/12/14 02:53:17;;;;;;;9.70;5.43;;;8.80;99.90;;;;;;5013780;28;20171;-78
2021/12/14 02:55:43;;;;;;;8.73;4.87;;;8.80;99.90;;;;;;5012459;28;20171;-78
2021/12/14 02:58:10;;;;;;;10.47;5.53;;;8.70;99.90;;;;;;4996257;28;20186;-75
2021/12/14 03:00:46;;;;;;;9.87;4.73;;;8.70;99.90;;;;;;5012610;28;20306;-77
2021/12/14 03:03:15;;;;;;;9.80;5.17;;;8.70;99.90;;;;;;5012596;28;20197;-78
2021/12/14 03:05:43;;;;;;;9.53;5.27;;;8.80;99.90;;;;;;5013767;28;20650;-76
2021/12/14 03:08:22;;;;;;;8.90;5.77;;;8.80;99.90;;;;;;5012709;28;20170;-78
2021/12/14 03:10:59;;;;;;;8.40;4.77;;;8.80;99.90;;;;;;5012193;28;20182;-77
2021/12/14 03:13:31;;;;;;;12.80;4.60;;;8.70;99.90;;;;;;4981857;28;20174;-76
2021/12/14 03:16:01;;;;;;;7.50;4.33;;;8.70;99.90;;;;;;5011785;28;20217;-79
2021/12/14 03:18:35;;;;;;;8.60;4.37;;;8.60;99.90;;;;;;4980403;28;20577;-79
2021/12/14 03:21:10;;;;;;;8.03;4.43;;;8.60;99.90;;;;;;5012604;28;20174;-78
2021/12/14 03:23:43;;;;;;;6.63;4.47;;;8.60;99.90;;;;;;5012143;28;20189;-76
2021/12/14 03:26:13;;;;;;;8.27;4.60;;;8.60;99.90;;;;;;5011866;28;20237;-78
2021/12/14 03:28:40;;;;;;;6.40;4.17;;;8.60;99.90;;;;;;5011872;28;20213;-78
2021/12/14 03:31:11;;;;;;;5.77;3.63;;;8.50;99.90;;;;;;5012005;28;20499;-75
2021/12/14 03:33:48;;;;;;;7.03;4.33;;;8.50;99.90;;;;;;5012158;28;20206;-76
2021/12/14 03:36:20;;;;;;;6.90;4.43;;;8.60;99.90;;;;;;4995507;28;20213;-77
2021/12/14 03:39:09;;;;;;;8.53;4.90;;;8.70;99.90;;;;;;5011931;28;20183;-76
2021/12/14 03:41:48;;;;;;;7.87;4.03;;;8.50;99.90;;;;;;5011628;28;20739;-76
2021/12/14 03:44:27;;;;;;;9.90;4.43;;;8.50;99.90;;;;;;5012926;28;20170;-77
2021/12/14 03:47:00;;;;;;;6.50;4.00;;;8.50;99.90;;;;;;4995158;28;20328;-77
2021/12/14 03:49:39;;;;;;;8.47;4.53;;;8.50;99.90;;;;;;5011799;28;20193;-78
2021/12/14 03:52:11;;;;;;;6.80;3.83;;;8.50;99.90;;;;;;5012178;28;20181;-76
2021/12/14 03:54:38;;;;;;;8.93;4.40;;;8.50;99.90;;;;;;5011466;28;20193;-75
2021/12/14 03:57:05;;;;;;;7.63;3.73;;;8.30;99.90;;;;;;5010801;28;20220;-76
2021/12/14 03:59:31;;;;;;;5.83;3.57;;;8.40;99.90;;;;;;5012696;28;20178;-76
2021/12/14 04:01:59;;;;;;;9.27;4.27;;;8.40;99.90;;;;;;4994936;28;20182;-77
2021/12/14 04:04:33;;;;;;;6.07;3.77;;;8.40;99.90;;;;;;5011443;28;20241;-75
2021/12/14 04:07:02;;;;;;;5.70;3.80;;;8.50;99.90;;;;;;5010911;28;20256;-78
2021/12/14 04:09:32;;;;;;;6.37;3.87;;;8.60;99.90;;;;;;5012574;28;20178;-79
2021/12/14 04:11:58;;;;;;;7.17;3.90;;;8.60;99.90;;;;;;5012114;28;20182;-77
2021/12/14 04:14:29;;;;;;;9.30;4.27;;;8.60;99.90;;;;;;5010873;28;20206;-77
2021/12/14 04:16:56;;;;;;;7.30;4.03;;;8.60;99.90;;;;;;5011753;28;20206;-76
2021/12/14 04:19:27;;;;;;;8.00;3.50;;;8.50;99.90;;;;;;5011280;28;20178;-77
2021/12/14 04:21:56;;;;;;;7.83;4.17;;;8.50;99.90;;;;;;5011512;28;20196;-78
2021/12/14 04:24:26;;;;;;;5.87;3.17;;;8.50;99.90;;;;;;5011227;28;20229;-78
2021/12/14 04:26:54;;;;;;;6.17;3.40;;;8.40;99.90;;;;;;5012379;28;20171;-78
2021/12/14 04:29:20;;;;;;;6.37;3.63;;;8.40;99.90;;;;;;5011042;28;20183;-80
2021/12/14 04:31:48;;;;;;;5.63;3.00;;;8.50;99.90;;;;;;4994878;28;20280;-77
2021/12/14 04:34:17;;;;;;;6.17;4.10;;;8.40;99.90;;;;;;5010872;28;20190;-75
2021/12/14 04:36:54;;;;;;;5.73;2.97;;;8.40;99.90;;;;;;5027195;28;20791;-75
2021/12/14 04:53:14;;;;;;;5.93;3.37;;;8.30;99.90;;;;;;5001485;28;20186;-76
2021/12/14 04:55:45;;;;;;;5.73;3.50;;;8.40;99.90;;;;;;5009935;28;20185;-76
2021/12/14 04:58:13;;;;;;;7.83;4.67;;;8.50;99.90;;;;;;5010274;28;20229;-79
2021/12/14 05:00:46;;;;;;;8.23;4.33;;;8.40;99.90;;;;;;4993945;28;20662;-76
2021/12/14 05:03:26;;;;;;;8.47;5.03;;;8.40;99.90;;;;;;5010822;28;20193;-77
2021/12/14 05:06:08;;;;;;;7.93;4.50;;;8.40;99.90;;;;;;4990601;28;20179;-78
2021/12/14 05:11:14;;;;;;;8.97;4.90;;;8.30;99.90;;;;;;4990797;28;20634;-79
2021/12/14 05:13:43;;;;;;;9.60;5.43;;;8.20;99.90;;;;;;4974650;28;20189;-77
2021/12/14 05:16:16;;;;;;;7.90;4.80;;;8.20;99.90;;;;;;5025819;28;20304;-76
2021/12/14 05:19:00;;;;;;;10.73;5.20;;;8.30;99.90;;;;;;5044923;28;20517;-76
2021/12/14 05:21:39;;;;;;;9.67;5.17;;;8.20;99.90;;;;;;5010176;28;20185;-77
2021/12/14 05:24:10;;;;;;;9.47;4.50;;;8.20;99.90;;;;;;4994050;28;20175;-76
2021/12/14 05:26:36;;;;;;;9.30;4.57;;;8.10;99.90;;;;;;5009492;28;20182;-78
2021/12/14 05:29:04;;;;;;;9.93;4.50;;;8.00;99.90;;;;;;5010182;28;20182;-78
2021/12/14 05:31:30;;;;;;;9.27;5.70;;;8.00;99.90;;;;;;5009645;28;20178;-76
2021/12/14 05:33:56;;;;;;;6.47;4.30;;;8.10;99.90;;;;;;5009907;28;20645;-77
2021/12/14 05:36:24;;;;;;;8.77;4.77;;;8.20;99.90;;;;;;5009439;28;20218;-77
2021/12/14 05:44:13;;;;;;;5.83;3.90;;;8.10;99.90;;;;;;5010986;28;20322;-77
2021/12/14 05:46:39;;;;;;;6.37;3.70;;;8.10;99.90;;;;;;5009419;28;20665;-75
2021/12/14 05:49:11;;;;;;;6.13;3.03;;;7.90;99.90;;;;;;4993596;28;20637;-76
2021/12/14 05:51:38;;;;;;;6.67;3.87;;;7.80;99.90;;;;;;5010881;28;20182;-79
2021/12/14 05:54:05;;;;;;;7.33;3.40;;;8.10;99.90;;;;;;5009882;28;20174;-76
2021/12/14 05:56:32;;;;;;;6.33;3.23;;;8.10;99.90;;;;;;4992986;28;20252;-75
2021/12/14 05:58:59;;;;;;;6.10;3.33;;;8.10;99.90;;;;;;4993452;28;20641;-78
2021/12/14 06:01:29;;;;;;;6.67;3.50;;;8.10;99.90;;;;;;4993513;28;20183;-76
2021/12/14 06:04:00;;;;;;;5.30;3.13;;;8.10;99.90;;;;;;5010815;28;20233;-77
2021/12/14 06:06:33;;;;;;;7.23;4.23;;;8.20;99.90;;;;;;5010499;28;20549;-77
2021/12/14 06:09:04;;;;;;;6.43;3.30;;;8.20;99.90;;;;;;5010875;28;20181;-78
2021/12/14 06:11:31;;;;;;;6.23;3.30;;;8.10;99.90;;;;;;5025732;28;20181;-77
2021/12/14 06:13:57;;;;;;;5.80;3.50;;;8.10;99.90;;;;;;5026893;28;20261;-76
2021/12/14 06:16:37;;;;;;;5.13;3.13;;;8.10;99.90;;;;;;5013175;28;20210;-77
2021/12/14 06:19:22;;;;;;;5.47;3.23;;;8.10;99.90;;;;;;4996994;28;20193;-79
2021/12/14 06:21:52;;;;;;;5.97;3.27;;;7.90;99.90;;;;;;5014475;28;20178;-76
2021/12/14 06:24:22;;;;;;;5.10;3.30;;;8.10;99.90;;;;;;5013364;28;20185;-76
2021/12/14 06:26:51;;;;;;;4.20;2.93;;;8.10;99.90;;;;;;5010298;28;20197;-77
2021/12/14 06:29:25;;;;;;;6.13;3.00;;;8.10;99.90;;;;;;4990600;28;20187;-79
2021/12/14 06:31:52;;;;;;;5.93;2.90;;;8.10;99.90;;;;;;4972282;28;20224;-78
2021/12/14 06:34:29;;;;;;;4.23;2.70;;;8.10;99.90;;;;;;5025524;28;20278;-75
2021/12/14 06:37:03;;;;;;;4.77;3.13;;;8.10;99.90;;;;;;5008719;28;20285;-76
2021/12/14 06:39:57;;;;;;;4.70;3.13;;;8.10;99.90;;;;;;5019116;28;20313;-77
2021/12/14 06:42:23;;;;;;;4.43;3.10;;;8.20;99.90;;;;;;4998178;28;20194;-75
2021/12/14 06:44:49;;;;;;;5.03;3.20;;;8.20;99.90;;;;;;5002741;28;20183;-75
2021/12/14 06:47:15;;;;;;;6.07;2.97;;;8.20;99.90;;;;;;4976551;28;20602;-77
2021/12/14 06:49:41;;;;;;;5.13;3.00;;;8.10;99.90;;;;;;4974436;28;20202;-77
2021/12/14 06:52:07;;;;;;;4.07;2.70;;;8.10;99.90;;;;;;4992515;28;20661;-78
2021/12/14 06:54:33;;;;;;;5.20;2.90;;;8.10;99.90;;;;;;4997877;28;20706;-76
2021/12/14 06:57:03;;;;;;;4.63;2.60;;;8.10;99.90;;;;;;4991551;28;20293;-77
2021/12/14 06:59:29;;;;;;;5.07;2.87;;;7.90;99.90;;;;;;5000488;28;20336;-76
2021/12/14 07:02:01;;;;;;;5.40;3.03;;;8.00;99.90;;;;;;4996073;28;20611;-78
2021/12/14 07:04:32;;;;;;;4.40;2.93;;;8.10;99.90;;;;;;5008199;28;20190;-78
2021/12/14 07:07:05;;;;;;;4.77;3.43;;;8.20;99.90;;;;;;4996896;28;20187;-78
2021/12/14 07:09:43;;;;;;;3.50;2.73;;;8.10;99.90;;;;;;4993194;28;20183;-74
2021/12/14 07:12:25;;;;;;;4.90;2.70;;;8.00;99.90;;;;;;5009221;28;20254;-77
2021/12/14 07:14:54;;;;;;;4.37;3.07;;;8.00;99.90;;;;;;4993783;28;20215;-79
2021/12/14 07:17:27;;;;;;;4.70;3.00;;;7.90;99.90;;;;;;4992797;28;20210;-74
2021/12/14 07:19:57;;;;;;;4.73;3.30;;;8.00;99.90;;;;;;4992759;28;20176;-76
2021/12/14 07:22:32;;;;;;;5.40;3.07;;;7.90;99.90;;;;;;4993654;28;20214;-73
2021/12/14 07:25:06;;;;;;;5.10;3.07;;;7.90;99.90;;;;;;5001493;28;20209;-75
2021/12/14 07:27:51;;;;;;;4.43;3.07;;;7.90;99.90;;;;;;5007280;28;20214;-83
2021/12/14 07:30:34;;;;;;;3.80;2.80;;;7.90;99.90;;;;;;4976777;28;20282;-80
2021/12/14 07:33:02;;;;;;;4.03;2.77;;;8.00;99.90;;;;;;4994135;28;20266;-79
2021/12/14 07:35:45;;;;;;;4.07;2.70;;;8.00;99.90;;;;;;4993418;28;20186;-81
2021/12/14 07:38:14;;;;;;;3.87;2.50;;;7.90;99.90;;;;;;4979408;28;20206;-79
2021/12/14 07:40:43;;;;;;;3.20;2.33;;;7.90;99.90;;;;;;4994709;28;20185;-81
2021/12/14 07:43:29;;;;;;;4.43;3.00;;;8.00;99.90;;;;;;4982705;28;20270;-81
2021/12/14 07:45:56;;;;;;;6.80;4.17;;;8.00;99.90;;;;;;4995410;28;20265;-79
2021/12/14 07:48:40;;;;;;;7.77;4.60;;;7.80;99.90;;;;;;5029588;28;20171;-79
2021/12/14 07:51:06;;;;;;;7.70;3.47;;;7.60;99.90;;;;;;5029115;28;20345;-82
2021/12/14 07:53:42;;;;;;;4.77;3.47;;;7.70;99.90;;;;;;4979574;28;20210;-79
2021/12/14 07:56:20;;;;;;;3.27;2.40;;;8.00;99.90;;;;;;4979649;28;20272;-78
2021/12/14 07:58:48;;;;;;;4.93;2.83;;;8.00;99.90;;;;;;4997257;28;20178;-81
2021/12/14 08:01:15;;;;;;;3.80;2.87;;;8.10;99.90;;;;;;5010935;28;20609;-79
2021/12/14 08:03:41;;;;;;;3.97;2.70;;;8.20;99.90;;;;;;4995422;28;20236;-81
2021/12/14 08:06:11;;;;;;;3.60;2.57;;;8.30;99.90;;;;;;4995482;28;20782;-78
2021/12/14 08:08:44;;;;;;;2.73;2.20;;;8.50;99.90;;;;;;4995476;28;20210;-79
2021/12/14 08:11:29;;;;;;;4.63;2.90;;;8.20;99.90;;;;;;4981273;28;20179;-79
2021/12/14 08:14:03;;;;;;;6.03;2.93;;;8.40;99.90;;;;;;4983117;28;20644;-79
2021/12/14 08:16:45;;;;;;;4.80;3.20;;;8.20;99.90;;;;;;5013778;28;20221;-81
2021/12/14 08:19:24;;;;;;;5.20;3.23;;;8.30;99.90;;;;;;4998220;28;20174;-81
2021/12/14 08:21:50;;;;;;;4.77;3.03;;;8.40;99.90;;;;;;5015121;28;20202;-81
2021/12/14 08:24:17;;;;;;;5.07;3.73;;;8.30;99.90;;;;;;4981756;28;20182;-78
2021/12/14 08:26:53;;;;;;;4.83;3.33;;;8.30;99.90;;;;;;4998689;28;20290;-80
2021/12/14 08:29:32;;;;;;;6.57;3.53;;;8.30;99.90;;;;;;4979770;28;20181;-78
2021/12/14 08:32:11;;;;;;;5.80;3.70;;;8.40;99.90;;;;;;5013687;28;20743;-79
2021/12/14 08:34:45;;;;;;;6.47;3.70;;;8.30;99.90;;;;;;5014307;28;20182;-79
2021/12/14 08:37:16;;;;;;;6.30;3.97;;;8.30;99.90;;;;;;4997718;28;20226;-81
2021/12/14 08:39:54;;;;;;;5.43;3.70;;;8.20;99.90;;;;;;5013693;28;20645;-80
2021/12/14 08:42:26;;;;;;;7.93;3.80;;;8.10;99.90;;;;;;5014878;28;20237;-79
2021/12/14 08:44:59;;;;;;;6.60;3.83;;;8.20;99.90;;;;;;5015292;28;20179;-79
2021/12/14 08:47:33;;;;;;;7.10;4.00;;;8.20;99.90;;;;;;5013176;28;20179;-81
2021/12/14 08:50:02;;;;;;;7.27;4.13;;;8.20;99.90;;;;;;4996997;28;20309;-78
2021/12/14 08:52:30;;;;;;;6.87;4.03;;;8.20;99.90;;;;;;5012825;28;20265;-82
2021/12/14 08:54:57;;;;;;;9.80;5.00;;;8.20;99.90;;;;;;5010926;28;20214;-81
2021/12/14 08:57:28;;;;;;;8.43;5.23;;;8.00;99.90;;;;;;4995068;28;20213;-81
2021/12/14 09:00:00;;;;;;;8.17;4.27;;;7.90;99.90;;;;;;5010966;28;20241;-81
2021/12/14 09:02:31;;;;;;;7.13;4.10;;;8.00;99.90;;;;;;5011314;28;20592;-79
2021/12/14 09:05:17;;;;;;;7.17;3.97;;;8.00;99.90;;;;;;4994427;28;20187;-79
2021/12/14 09:07:44;;;;;;;5.83;3.43;;;8.10;99.90;;;;;;4994386;28;20575;-79
2021/12/14 09:10:16;;;;;;;6.27;3.70;;;7.90;99.90;;;;;;5010272;28;20201;-79
2021/12/14 09:12:46;;;;;;;6.63;4.10;;;8.00;99.90;;;;;;5011939;28;20179;-79
2021/12/14 09:15:19;;;;;;;7.63;3.80;;;8.00;99.90;;;;;;4993710;28;20213;-78
2021/12/14 09:17:47;;;;;;;4.87;3.47;;;8.10;99.90;;;;;;5010318;28;20202;-77
2021/12/14 09:20:45;;;;;;;5.80;3.70;;;8.20;99.90;;;;;;4994117;28;20273;-77
2021/12/14 09:23:19;;;;;;;5.37;3.27;;;8.10;99.90;;;;;;4988079;28;20182;-79
2021/12/14 09:25:47;;;;;;;5.30;3.53;;;8.20;99.90;;;;;;4993796;28;20189;-80
2021/12/14 09:28:13;;;;;;;11.27;3.70;;;8.10;99.90;;;;;;5010425;28;20212;-80
2021/12/14 09:30:44;;;;;;;7.23;4.00;;;8.20;99.90;;;;;;5010658;28;20183;-78
2021/12/14 09:33:12;;;;;;;5.70;3.70;;;8.40;99.90;;;;;;5010157;28;20182;-77
2021/12/14 09:35:38;;;;;;;6.33;3.70;;;8.40;99.90;;;;;;5009818;28;20622;-79
2021/12/14 09:38:10;;;;;;;6.03;3.30;;;8.30;99.90;;;;;;4993868;28;20615;-79
2021/12/14 09:40:46;;;;;;;8.30;3.70;;;8.20;99.90;;;;;;5009858;28;20653;-78
2021/12/14 09:43:12;;;;;;;5.87;3.93;;;8.30;99.90;;;;;;5010071;28;20185;-77
2021/12/14 09:45:44;;;;;;;5.53;3.50;;;8.30;99.90;;;;;;5010013;28;20815;-82
2021/12/14 09:48:16;;;;;;;7.23;3.50;;;8.30;99.90;;;;;;5010984;28;20170;-77
2021/12/14 09:50:45;;;;;;;4.20;3.00;;;8.30;99.90;;;;;;5009669;28;20263;-78
2021/12/14 09:53:14;;;;;;;4.87;3.80;;;8.30;99.90;;;;;;5010839;28;20182;-78
2021/12/14 09:55:45;;;;;;;6.80;4.03;;;8.40;99.90;;;;;;5026556;28;20228;-78
2021/12/14 09:58:18;;;;;;;6.43;3.70;;;8.30;99.90;;;;;;5025593;28;20353;-80
2021/12/14 10:00:58;;;;;;;5.03;3.63;;;8.20;99.90;;;;;;5009829;28;20289;-78
2021/12/14 10:03:24;;;;;;;5.10;3.40;;;8.40;99.90;;;;;;5009818;28;20641;-78
2021/12/14 10:05:58;;;;;;;5.57;3.40;;;8.60;99.90;;;;;;4993045;28;20655;-79
2021/12/14 10:08:30;;;;;;;5.90;3.40;;;8.60;99.90;;;;;;5009953;28;20626;-80
2021/12/14 10:11:34;;;;;;;7.97;3.63;;;8.70;99.90;;;;;;5012120;28;20192;-77
2021/12/14 10:14:05;;;;;;;5.03;3.23;;;8.80;99.90;;;;;;5006565;28;20190;-78
2021/12/14 10:16:31;;;;;;;7.13;4.30;;;8.80;99.90;;;;;;5009237;28;20210;-78
2021/12/14 10:19:04;;;;;;;5.17;3.60;;;8.60;99.90;;;;;;5009934;28;20804;-77
2021/12/14 10:21:36;;;;;;;9.83;6.00;;;8.80;99.90;;;;;;5009632;28;20178;-76
2021/12/14 10:24:05;;;;;;;5.33;3.57;;;8.90;99.90;;;;;;5009563;28;20414;-76
2021/12/14 10:26:34;;;;;;;6.87;4.27;;;8.90;99.90;;;;;;5009760;28;20600;-76
2021/12/14 10:29:01;;;;;;;6.87;4.37;;;8.60;99.90;;;;;;4992850;28;20204;-80
2021/12/14 10:31:37;;;;;;;8.47;4.20;;;8.70;99.90;;;;;;5009479;28;20214;-77
2021/12/14 10:34:18;;;;;;;5.80;3.83;;;8.70;99.90;;;;;;5025575;28;20202;-79
2021/12/14 10:36:48;;;;;;;5.40;3.93;;;8.80;99.90;;;;;;4993031;28;20511;-76
2021/12/14 10:44:48;;;;;;;6.67;4.27;;;8.90;99.90;;;;;;5009120;28;20202;-79
2021/12/14 10:47:16;;;;;;;5.87;3.90;;;8.90;99.90;;;;;;5025478;28;20174;-79
2021/12/14 10:49:43;;;;;;;7.30;4.37;;;8.90;99.90;;;;;;5025367;28;20174;-80
2021/12/14 10:52:14;;;;;;;5.23;3.77;;;8.90;99.90;;;;;;5009309;28;20183;-80
2021/12/14 10:54:49;;;;;;;8.07;4.47;;;8.90;99.90;;;;;;5008821;28;20199;-76
2021/12/14 10:57:20;;;;;;;5.83;3.60;;;9.00;99.90;;;;;;5025196;28;20201;-80
2021/12/14 10:59:51;;;;;;;6.83;3.97;;;9.00;99.90;;;;;;5010696;28;20179;-80
2021/12/14 11:02:20;;;;;;;7.30;4.53;;;9.10;99.90;;;;;;4996377;28;20186;-77
2021/12/14 11:04:55;;;;;;;8.63;4.00;;;9.00;99.90;;;;;;5029212;28;20206;-80
2021/12/14 11:07:38;;;;;;;15.67;9.73;;;8.90;99.90;;;;;;4996144;28;20174;-80
2021/12/14 11:10:07;;;;;;;9.33;5.93;;;8.90;99.90;;;;;;5012435;28;20642;-79
2021/12/14 11:12:36;;;;;;;9.17;4.80;;;8.80;99.90;;;;;;5014232;28;20611;-77
2021/12/14 11:15:35;;;;;;;6.93;3.90;;;9.00;99.90;;;;;;5011980;28;20264;-78
2021/12/14 11:18:10;;;;;;;8.10;5.23;;;9.10;99.90;;;;;;5028702;28;20214;-80
2021/12/14 11:20:51;;;;;;;8.30;4.40;;;9.10;99.90;;;;;;4996467;28;20186;-77
2021/12/14 11:23:26;;;;;;;7.30;4.70;;;9.00;99.90;;;;;;5012602;28;20178;-80
2021/12/14 11:26:03;;;;;;;10.03;6.43;;;9.00;99.90;;;;;;4996272;28;20174;-78
2021/12/14 11:28:41;;;;;;;10.73;4.60;;;8.90;99.90;;;;;;5012188;28;20177;-80
2021/12/14 11:31:34;;;;;;;8.03;4.53;;;9.10;99.90;;;;;;5012495;28;20178;-81
2021/12/14 11:34:10;;;;;;;12.67;4.70;;;9.20;99.90;;;;;;5015299;28;20174;-80
2021/12/14 11:36:51;;;;;;;7.03;4.60;;;9.10;99.90;;;;;;5013384;28;20232;-80
2021/12/14 11:39:27;;;;;;;5.80;4.07;;;9.30;99.90;;;;;;5013901;28;20186;-80
2021/12/14 11:42:09;;;;;;;6.80;4.57;;;9.40;99.90;;;;;;4996794;28;20174;-78
2021/12/14 11:44:47;;;;;;;7.97;4.60;;;9.40;99.90;;;;;;4980246;28;20213;-77
2021/12/14 11:48:00;;;;;;;6.17;4.53;;;9.40;99.90;;;;;;5011792;28;20174;-78
2021/12/14 11:50:12;;;;;;;7.00;4.60;;;9.60;99.90;;;;;;4999563;28;20190;-81
2021/12/14 11:52:50;;;;;;;7.70;4.77;;;9.50;99.90;;;;;;5011927;28;20178;-80
2021/12/14 11:55:19;;;;;;;6.33;4.50;;;9.50;99.90;;;;;;5027868;28;20174;-80
2021/12/14 11:57:46;;;;;;;6.53;4.50;;;9.40;99.90;;;;;;5011742;28;20333;-80
2021/12/14 12:00:20;;;;;;;8.20;4.33;;;9.30;99.90;;;;;;4995230;28;20178;-80
2021/12/14 12:02:46;;;;;;;7.50;4.10;;;9.30;99.90;;;;;;5011969;28;20178;-80
2021/12/14 12:05:23;;;;;;;5.60;3.87;;;9.30;99.90;;;;;;5011829;28;20175;-77
2021/12/14 12:10:46;;;;;;;6.33;4.47;;;9.40;99.90;;;;;;5012213;28;20178;-80
2021/12/14 12:13:12;;;;;;;6.93;4.43;;;9.50;99.90;;;;;;5027700;28;20251;-77
2021/12/14 12:15:43;;;;;;;6.37;4.17;;;9.50;99.90;;;;;;5011081;28;20476;-79
2021/12/14 12:18:10;;;;;;;10.63;5.20;;;9.50;99.90;;;;;;5012885;28;20751;-80
2021/12/14 12:20:45;;;;;;;6.43;4.57;;;9.60;99.90;;;;;;5010630;28;20186;-80
2021/12/14 12:23:15;;;;;;;8.63;4.90;;;9.60;99.90;;;;;;5012697;28;20226;-77
2021/12/14 12:25:44;;;;;;;6.90;4.27;;;9.50;99.90;;;;;;5011012;28;20179;-80
2021/12/14 12:28:15;;;;;;;10.83;4.63;;;9.50;99.90;;;;;;5012338;28;20185;-80
2021/12/14 12:30:50;;;;;;;8.50;5.73;;;9.50;99.90;;;;;;5027739;28;20217;-80
2021/12/14 12:33:29;;;;;;;8.17;4.50;;;9.40;99.90;;;;;;5011184;28;20218;-80
2021/12/14 12:36:15;;;;;;;6.73;4.90;;;9.50;99.90;;;;;;5010717;28;20184;-80
2021/12/14 12:39:02;;;;;;;10.00;5.00;;;9.60;99.90;;;;;;5014135;28;20601;-77
2021/12/14 12:41:58;;;;;;;10.73;5.17;;;9.50;99.90;;;;;;5014760;28;20216;-77
2021/12/14 12:44:32;;;;;;;7.77;5.13;;;9.60;99.90;;;;;;5010479;28;20175;-80
2021/12/14 12:47:07;;;;;;;7.57;4.90;;;9.70;99.90;;;;;;5010512;28;20192;-76
2021/12/14 12:49:41;;;;;;;8.10;5.40;;;9.60;99.90;;;;;;5011290;28;20221;-81
2021/12/14 12:52:29;;;;;;;6.47;4.70;;;9.60;99.90;;;;;;5027168;28;20167;-78
2021/12/14 12:55:10;;;;;;;7.97;5.77;;;9.70;99.90;;;;;;5015097;28;20171;-79
2021/12/14 12:57:59;;;;;;;7.77;5.03;;;9.80;99.90;;;;;;5012334;28;20233;-77
2021/12/14 13:00:40;;;;;;;7.17;5.13;;;9.60;99.90;;;;;;5027453;28;20163;-78
2021/12/14 13:03:24;;;;;;;13.23;8.20;;;9.70;99.90;;;;;;5011112;28;20245;-77
2021/12/14 13:06:10;;;;;;;7.90;5.10;;;9.80;99.90;;;;;;5010266;28;20178;-79
2021/12/14 13:08:40;;;;;;;6.03;4.60;;;9.90;99.90;;;;;;5010063;28;20298;-80
2021/12/14 13:11:17;;;;;;;6.67;5.10;;;9.80;99.90;;;;;;5010435;28;20542;-80
2021/12/14 13:13:59;;;;;;;6.90;5.23;;;9.80;99.90;;;;;;4994667;28;20183;-78
2021/12/14 13:16:30;;;;;;;8.37;5.47;;;9.70;99.90;;;;;;5010782;28;20538;-79
2021/12/14 13:18:59;;;;;;;9.73;5.63;;;9.80;99.90;;;;;;4994583;28;20239;-78
2021/12/14 13:21:53;;;;;;;7.50;5.50;;;9.80;99.90;;;;;;5011221;28;20659;-78
2021/12/14 13:24:42;;;;;;;8.73;5.80;;;9.80;99.90;;;;;;5010778;28;20174;-78
2021/12/14 13:27:11;;;;;;;8.50;5.30;;;9.70;99.90;;;;;;4993281;28;20611;-78
2021/12/14 13:29:53;;;;;;;6.87;4.90;;;9.70;99.90;;;;;;5010758;28;20560;-80
2021/12/14 13:32:33;;;;;;;9.37;6.60;;;9.60;99.90;;;;;;5009955;28;20177;-80
2021/12/14 13:35:08;;;;;;;11.03;6.80;;;9.60;99.90;;;;;;4993654;28;20234;-78
2021/12/14 13:37:52;;;;;;;8.80;5.93;;;9.60;99.90;;;;;;5009602;28;20206;-79
2021/12/14 13:40:19;;;;;;;7.30;4.83;;;9.60;99.90;;;;;;4979786;28;20265;-78
2021/12/14 13:42:57;;;;;;;8.17;5.17;;;9.60;99.90;;;;;;4993711;28;20285;-81
2021/12/14 13:45:30;;;;;;;8.20;5.37;;;9.60;99.90;;;;;;5026689;28;20166;-77
2021/12/14 13:47:57;;;;;;;6.70;4.97;;;9.50;99.90;;;;;;4986928;28;20653;-77
2021/12/14 13:50:37;;;;;;;8.07;5.20;;;9.50;99.90;;;;;;4998650;28;20188;-81
2021/12/14 13:53:07;;;;;;;6.57;4.73;;;9.40;99.90;;;;;;5009407;28;20205;-80
2021/12/14 13:55:38;;;;;;;6.93;4.87;;;9.30;99.90;;;;;;4977039;28;20197;-77
2021/12/14 13:58:07;;;;;;;11.57;6.07;;;9.20;99.90;;;;;;5011029;28;20198;-79
2021/12/14 14:00:53;;;;;;;8.23;5.07;;;9.10;99.90;;;;;;4977544;28;20196;-78
2021/12/14 14:03:27;;;;;;;5.57;4.57;;;9.20;99.90;;;;;;5010536;28;20270;-80
2021/12/14 14:05:55;;;;;;;9.77;5.23;;;9.20;99.90;;;;;;5009658;28;20519;-80